sensor_id;sensor_type;location;lat;lon;timestamp;pressure;altitude;pressure_sealevel;temperature;humidity
79150;BME280;68563;45.644;13.782;2023-05-17T00:01:52;100080.16;;;14.78;58.08
79150;BME280;68563;45.644;13.782;2023-05-17T00:04:17;100103.53;;;14.79;57.44
79150;BME280;68563;45.644;13.782;2023-05-17T00:06:43;100067.97;;;14.78;58.04
79150;BME280;68563;45.644;13.782;2023-05-17T00:09:08;100054.28;;;14.73;58.17
79150;BME280;68563;45.644;13.782;2023-05-17T00:11:34;100100.38;;;14.71;57.80
79150;BME280;68563;45.644;13.782;2023-05-17T00:14:00;100069.09;;;14.71;58.74
79150;BME280;68563;45.644;13.782;2023-05-17T00:16:26;100071.94;;;14.65;58.04
79150;BME280;68563;45.644;13.782;2023-05-17T00:18:51;100089.31;;;14.66;58.54
79150;BME280;68563;45.644;13.782;2023-05-17T00:21:17;100088.44;;;14.65;57.99
79150;BME280;68563;45.644;13.782;2023-05-17T00:23:42;100104.03;;;14.67;57.85
79150;BME280;68563;45.644;13.782;2023-05-17T00:26:08;100108.59;;;14.60;58.86
79150;BME280;68563;45.644;13.782;2023-05-17T00:28:33;100106.81;;;14.61;59.30
79150;BME280;68563;45.644;13.782;2023-05-17T00:30:58;100087.00;;;14.57;59.15
79150;BME280;68563;45.644;13.782;2023-05-17T00:33:24;100100.03;;;14.57;58.97
79150;BME280;68563;45.644;13.782;2023-05-17T00:35:49;100071.63;;;14.50;58.14
79150;BME280;68563;45.644;13.782;2023-05-17T00:38:15;100081.25;;;14.48;59.07
79150;BME280;68563;45.644;13.782;2023-05-17T00:40:40;100057.75;;;14.50;58.74
79150;BME280;68563;45.644;13.782;2023-05-17T00:43:05;100062.97;;;14.50;58.29
79150;BME280;68563;45.644;13.782;2023-05-17T00:45:31;100082.59;;;14.59;57.42
79150;BME280;68563;45.644;13.782;2023-05-17T00:47:56;100082.59;;;14.59;57.99
79150;BME280;68563;45.644;13.782;2023-05-17T00:50:22;100078.94;;;14.63;56.79
79150;BME280;68563;45.644;13.782;2023-05-17T00:52:47;100065.19;;;14.59;56.56
79150;BME280;68563;45.644;13.782;2023-05-17T00:55:13;100081.50;;;14.64;56.40
79150;BME280;68563;45.644;13.782;2023-05-17T00:57:38;100084.09;;;14.66;56.67
79150;BME280;68563;45.644;13.782;2023-05-17T01:00:04;100104.94;;;14.66;56.77
79150;BME280;68563;45.644;13.782;2023-05-17T01:02:30;100056.19;;;14.68;57.03
79150;BME280;68563;45.644;13.782;2023-05-17T01:04:56;100100.56;;;14.66;56.34
79150;BME280;68563;45.644;13.782;2023-05-17T01:07:21;100104.81;;;14.69;56.36
79150;BME280;68563;45.644;13.782;2023-05-17T01:09:47;100078.88;;;14.66;57.10
79150;BME280;68563;45.644;13.782;2023-05-17T01:25:52;100106.22;;;14.54;56.68
79150;BME280;68563;45.644;13.782;2023-05-17T01:28:20;100061.09;;;14.54;56.55
79150;BME280;68563;45.644;13.782;2023-05-17T01:30:49;100074.47;;;14.44;56.56
79150;BME280;68563;45.644;13.782;2023-05-17T01:33:16;100085.13;;;14.38;56.79
79150;BME280;68563;45.644;13.782;2023-05-17T01:35:42;100082.94;;;14.49;56.81
79150;BME280;68563;45.644;13.782;2023-05-17T01:38:07;100087.34;;;14.47;56.38
79150;BME280;68563;45.644;13.782;2023-05-17T01:40:34;100111.66;;;14.48;56.11
79150;BME280;68563;45.644;13.782;2023-05-17T01:43:09;100115.00;;;14.51;55.23
79150;BME280;68563;45.644;13.782;2023-05-17T01:45:55;100204.56;;;14.49;55.90
79150;BME280;68563;45.644;13.782;2023-05-17T01:48:43;100079.44;;;14.50;56.46
79150;BME280;68563;45.644;13.782;2023-05-17T01:51:15;100069.25;;;14.44;56.35
79150;BME280;68563;45.644;13.782;2023-05-17T01:53:54;100063.50;;;14.36;57.02
79150;BME280;68563;45.644;13.782;2023-05-17T01:56:26;100108.50;;;14.40;56.35
79150;BME280;68563;45.644;13.782;2023-05-17T01:58:53;100106.97;;;14.34;56.33
79150;BME280;68563;45.644;13.782;2023-05-17T02:01:21;100056.50;;;14.36;56.41
79150;BME280;68563;45.644;13.782;2023-05-17T02:03:48;100083.28;;;14.40;55.72
79150;BME280;68563;45.644;13.782;2023-05-17T02:06:15;100085.78;;;14.43;55.02
79150;BME280;68563;45.644;13.782;2023-05-17T02:08:40;100083.19;;;14.43;55.02
79150;BME280;68563;45.644;13.782;2023-05-17T02:11:06;100074.22;;;14.50;54.44
79150;BME280;68563;45.644;13.782;2023-05-17T02:13:31;100065.38;;;14.55;54.22
79150;BME280;68563;45.644;13.782;2023-05-17T02:16:00;100039.81;;;14.42;54.44
79150;BME280;68563;45.644;13.782;2023-05-17T02:18:26;100095.31;;;14.44;54.84
79150;BME280;68563;45.644;13.782;2023-05-17T02:20:53;100098.66;;;14.48;55.14
79150;BME280;68563;45.644;13.782;2023-05-17T02:23:18;100067.47;;;14.45;55.29
79150;BME280;68563;45.644;13.782;2023-05-17T02:25:43;100052.72;;;14.45;54.60
79150;BME280;68563;45.644;13.782;2023-05-17T02:28:10;100069.00;;;14.50;54.38
79150;BME280;68563;45.644;13.782;2023-05-17T02:30:36;100080.34;;;14.49;53.79
79150;BME280;68563;45.644;13.782;2023-05-17T02:33:05;100112.47;;;14.50;54.68
79150;BME280;68563;45.644;13.782;2023-05-17T02:35:31;100060.38;;;14.50;54.41
79150;BME280;68563;45.644;13.782;2023-05-17T02:37:56;100148.00;;;14.51;54.16
79150;BME280;68563;45.644;13.782;2023-05-17T02:40:21;100104.41;;;14.56;53.73
79150;BME280;68563;45.644;13.782;2023-05-17T02:42:47;100127.63;;;14.62;52.97
79150;BME280;68563;45.644;13.782;2023-05-17T02:45:12;100117.97;;;14.66;53.33
79150;BME280;68563;45.644;13.782;2023-05-17T02:47:38;100042.47;;;14.63;53.13
79150;BME280;68563;45.644;13.782;2023-05-17T02:50:03;100100.56;;;14.66;53.24
79150;BME280;68563;45.644;13.782;2023-05-17T02:52:29;100078.63;;;14.72;53.41
79150;BME280;68563;45.644;13.782;2023-05-17T02:54:54;100035.44;;;14.65;53.25
79150;BME280;68563;45.644;13.782;2023-05-17T02:57:19;100048.31;;;14.70;53.19
79150;BME280;68563;45.644;13.782;2023-05-17T02:59:45;100083.84;;;14.72;53.47
79150;BME280;68563;45.644;13.782;2023-05-17T03:02:10;100047.34;;;14.72;53.56
79150;BME280;68563;45.644;13.782;2023-05-17T03:04:36;100052.50;;;14.74;53.67
79150;BME280;68563;45.644;13.782;2023-05-17T03:07:02;100037.75;;;14.73;53.47
79150;BME280;68563;45.644;13.782;2023-05-17T03:09:27;100070.66;;;14.75;53.94
79150;BME280;68563;45.644;13.782;2023-05-17T03:11:54;100101.91;;;14.77;54.26
79150;BME280;68563;45.644;13.782;2023-05-17T03:14:20;100101.91;;;14.77;53.98
79150;BME280;68563;45.644;13.782;2023-05-17T03:16:45;100063.91;;;14.71;54.21
79150;BME280;68563;45.644;13.782;2023-05-17T03:19:10;100063.81;;;14.73;54.72
79150;BME280;68563;45.644;13.782;2023-05-17T03:21:36;100083.84;;;14.72;55.16
79150;BME280;68563;45.644;13.782;2023-05-17T03:24:01;100083.13;;;14.68;55.08
79150;BME280;68563;45.644;13.782;2023-05-17T03:26:26;100095.16;;;14.71;54.67
79150;BME280;68563;45.644;13.782;2023-05-17T03:28:52;100115.13;;;14.72;54.58
79150;BME280;68563;45.644;13.782;2023-05-17T03:31:18;100062.59;;;14.81;54.10
79150;BME280;68563;45.644;13.782;2023-05-17T03:33:43;100062.81;;;14.77;53.98
79150;BME280;68563;45.644;13.782;2023-05-17T03:36:09;100125.16;;;14.81;53.84
79150;BME280;68563;45.644;13.782;2023-05-17T03:38:35;100177.25;;;14.83;53.88
79150;BME280;68563;45.644;13.782;2023-05-17T03:41:01;100137.28;;;14.82;53.43
79150;BME280;68563;45.644;13.782;2023-05-17T03:43:27;100138.09;;;14.84;53.73
79150;BME280;68563;45.644;13.782;2023-05-17T03:45:53;100084.06;;;14.88;53.99
79150;BME280;68563;45.644;13.782;2023-05-17T03:48:18;100132.81;;;14.86;53.66
79150;BME280;68563;45.644;13.782;2023-05-17T03:50:44;100108.44;;;14.87;53.61
79150;BME280;68563;45.644;13.782;2023-05-17T03:53:09;100111.13;;;14.86;53.55
79150;BME280;68563;45.644;13.782;2023-05-17T03:55:35;100109.41;;;14.84;52.99
79150;BME280;68563;45.644;13.782;2023-05-17T03:58:00;100102.50;;;14.83;54.02
79150;BME280;68563;45.644;13.782;2023-05-17T04:00:25;100141.59;;;14.83;53.76
79150;BME280;68563;45.644;13.782;2023-05-17T04:02:51;100080.66;;;14.86;53.46
79150;BME280;68563;45.644;13.782;2023-05-17T04:05:17;100159.75;;;14.87;53.92
79150;BME280;68563;45.644;13.782;2023-05-17T04:07:43;100140.59;;;14.88;53.59
79150;BME280;68563;45.644;13.782;2023-05-17T04:10:09;100068.63;;;14.83;53.51
79150;BME280;68563;45.644;13.782;2023-05-17T04:12:35;100105.19;;;14.82;53.96
79150;BME280;68563;45.644;13.782;2023-05-17T04:15:00;100114.75;;;14.81;53.95
79150;BME280;68563;45.644;13.782;2023-05-17T04:17:26;100106.16;;;14.79;54.39
79150;BME280;68563;45.644;13.782;2023-05-17T04:19:52;100116.69;;;14.76;54.08
79150;BME280;68563;45.644;13.782;2023-05-17T04:22:19;100169.47;;;14.81;54.28
79150;BME280;68563;45.644;13.782;2023-05-17T04:24:45;100132.22;;;14.79;54.05
79150;BME280;68563;45.644;13.782;2023-05-17T04:27:10;100183.22;;;14.87;53.35
79150;BME280;68563;45.644;13.782;2023-05-17T04:29:35;100143.84;;;14.93;53.42
79150;BME280;68563;45.644;13.782;2023-05-17T04:32:01;100145.59;;;14.92;52.99
79150;BME280;68563;45.644;13.782;2023-05-17T04:34:26;100111.22;;;14.82;52.01
79150;BME280;68563;45.644;13.782;2023-05-17T04:36:52;100211.09;;;15.07;51.79
79150;BME280;68563;45.644;13.782;2023-05-17T04:39:17;100165.94;;;15.06;52.15
79150;BME280;68563;45.644;13.782;2023-05-17T04:41:43;100118.19;;;15.04;51.76
79150;BME280;68563;45.644;13.782;2023-05-17T04:44:08;100151.38;;;15.00;51.92
79150;BME280;68563;45.644;13.782;2023-05-17T04:46:33;100193.06;;;15.02;51.46
79150;BME280;68563;45.644;13.782;2023-05-17T04:48:59;100130.31;;;15.05;51.98
79150;BME280;68563;45.644;13.782;2023-05-17T04:51:25;100185.47;;;15.18;51.42
79150;BME280;68563;45.644;13.782;2023-05-17T04:53:52;100116.41;;;15.27;51.20
79150;BME280;68563;45.644;13.782;2023-05-17T04:56:17;100120.78;;;15.26;51.17
79150;BME280;68563;45.644;13.782;2023-05-17T04:58:43;100135.59;;;15.26;50.61
79150;BME280;68563;45.644;13.782;2023-05-17T05:01:08;100174.06;;;15.21;50.94
79150;BME280;68563;45.644;13.782;2023-05-17T05:03:34;100140.22;;;15.19;51.29
79150;BME280;68563;45.644;13.782;2023-05-17T05:05:59;100145.44;;;15.19;51.25
79150;BME280;68563;45.644;13.782;2023-05-17T05:08:24;100147.00;;;15.23;51.52
79150;BME280;68563;45.644;13.782;2023-05-17T05:10:50;100126.97;;;15.24;51.85
79150;BME280;68563;45.644;13.782;2023-05-17T05:13:16;100127.94;;;15.21;52.18
79150;BME280;68563;45.644;13.782;2023-05-17T05:15:41;100154.09;;;15.20;52.04
79150;BME280;68563;45.644;13.782;2023-05-17T05:18:06;100197.53;;;15.21;52.27
79150;BME280;68563;45.644;13.782;2023-05-17T05:20:32;100180.19;;;15.20;52.65
79150;BME280;68563;45.644;13.782;2023-05-17T05:22:57;100145.53;;;15.16;52.57
79150;BME280;68563;45.644;13.782;2023-05-17T05:25:25;100224.44;;;15.21;52.88
79150;BME280;68563;45.644;13.782;2023-05-17T05:27:50;100193.09;;;15.23;52.41
79150;BME280;68563;45.644;13.782;2023-05-17T05:30:17;100207.81;;;15.24;52.24
79150;BME280;68563;45.644;13.782;2023-05-17T05:32:50;100194.78;;;15.24;52.44
79150;BME280;68563;45.644;13.782;2023-05-17T05:35:16;100172.34;;;15.20;52.55
79150;BME280;68563;45.644;13.782;2023-05-17T05:37:43;100199.06;;;15.26;51.46
79150;BME280;68563;45.644;13.782;2023-05-17T05:40:09;100193.75;;;15.28;51.48
79150;BME280;68563;45.644;13.782;2023-05-17T05:42:35;100236.16;;;15.33;51.28
79150;BME280;68563;45.644;13.782;2023-05-17T05:45:01;100191.00;;;15.31;51.93
79150;BME280;68563;45.644;13.782;2023-05-17T05:47:26;100193.69;;;15.29;51.64
79150;BME280;68563;45.644;13.782;2023-05-17T05:49:52;100281.56;;;15.29;51.89
79150;BME280;68563;45.644;13.782;2023-05-17T05:52:17;100270.22;;;15.30;51.45
79150;BME280;68563;45.644;13.782;2023-05-17T05:54:43;100243.91;;;15.35;51.06
79150;BME280;68563;45.644;13.782;2023-05-17T05:57:08;100236.16;;;15.33;50.48
79150;BME280;68563;45.644;13.782;2023-05-17T05:59:34;100233.47;;;15.35;50.60
79150;BME280;68563;45.644;13.782;2023-05-17T06:01:59;100232.50;;;15.37;50.20
79150;BME280;68563;45.644;13.782;2023-05-17T06:04:24;100262.91;;;15.38;50.58
79150;BME280;68563;45.644;13.782;2023-05-17T06:06:50;100270.00;;;15.35;51.00
79150;BME280;68563;45.644;13.782;2023-05-17T06:09:16;100308.72;;;15.45;50.85
79150;BME280;68563;45.644;13.782;2023-05-17T06:11:41;100301.94;;;15.41;51.22
79150;BME280;68563;45.644;13.782;2023-05-17T06:14:07;100273.31;;;15.40;51.24
79150;BME280;68563;45.644;13.782;2023-05-17T06:16:33;100289.00;;;15.38;50.96
79150;BME280;68563;45.644;13.782;2023-05-17T06:18:59;100288.00;;;15.42;51.09
79150;BME280;68563;45.644;13.782;2023-05-17T06:21:24;100276.50;;;15.46;51.23
79150;BME280;68563;45.644;13.782;2023-05-17T06:23:50;100291.34;;;15.46;51.60
79150;BME280;68563;45.644;13.782;2023-05-17T06:26:15;100293.03;;;15.47;51.37
79150;BME280;68563;45.644;13.782;2023-05-17T06:28:41;100317.34;;;15.47;51.88
79150;BME280;68563;45.644;13.782;2023-05-17T06:31:06;100305.09;;;15.50;52.32
79150;BME280;68563;45.644;13.782;2023-05-17T06:33:31;100312.13;;;15.47;52.05
79150;BME280;68563;45.644;13.782;2023-05-17T06:35:57;100311.31;;;15.47;51.72
79150;BME280;68563;45.644;13.782;2023-05-17T06:38:22;100341.81;;;15.45;52.39
79150;BME280;68563;45.644;13.782;2023-05-17T06:40:54;100307.97;;;15.43;51.98
79150;BME280;68563;45.644;13.782;2023-05-17T06:43:20;100314.75;;;15.47;52.26
79150;BME280;68563;45.644;13.782;2023-05-17T06:45:45;100317.53;;;15.43;52.12
79150;BME280;68563;45.644;13.782;2023-05-17T06:48:11;100348.78;;;15.44;52.19
79150;BME280;68563;45.644;13.782;2023-05-17T06:50:37;100346.88;;;15.50;51.94
79150;BME280;68563;45.644;13.782;2023-05-17T06:53:03;100339.94;;;15.48;51.85
79150;BME280;68563;45.644;13.782;2023-05-17T06:55:28;100364.00;;;15.57;51.87
79150;BME280;68563;45.644;13.782;2023-05-17T06:57:53;100346.72;;;15.53;51.90
79150;BME280;68563;45.644;13.782;2023-05-17T07:00:19;100334.66;;;15.50;52.11
79150;BME280;68563;45.644;13.782;2023-05-17T07:02:45;100352.91;;;15.50;52.60
79150;BME280;68563;45.644;13.782;2023-05-17T07:05:11;100378.03;;;15.53;51.60
79150;BME280;68563;45.644;13.782;2023-05-17T07:07:36;100339.03;;;15.50;51.62
79150;BME280;68563;45.644;13.782;2023-05-17T07:10:02;100389.94;;;15.60;51.12
79150;BME280;68563;45.644;13.782;2023-05-17T07:12:28;100351.59;;;15.62;51.15
79150;BME280;68563;45.644;13.782;2023-05-17T07:14:53;100356.69;;;15.65;50.98
79150;BME280;68563;45.644;13.782;2023-05-17T07:17:19;100344.44;;;15.67;50.80
79150;BME280;68563;45.644;13.782;2023-05-17T07:19:44;100367.81;;;15.70;50.88
79150;BME280;68563;45.644;13.782;2023-05-17T07:22:10;100325.97;;;15.72;51.13
79150;BME280;68563;45.644;13.782;2023-05-17T07:24:36;100372.13;;;15.71;51.33
79150;BME280;68563;45.644;13.782;2023-05-17T07:27:01;100363.25;;;15.75;50.58
79150;BME280;68563;45.644;13.782;2023-05-17T07:29:27;100367.56;;;15.76;50.77
79150;BME280;68563;45.644;13.782;2023-05-17T07:31:53;100352.81;;;15.75;50.52
79150;BME280;68563;45.644;13.782;2023-05-17T07:34:18;100353.47;;;15.80;50.61
79150;BME280;68563;45.644;13.782;2023-05-17T07:36:43;100370.78;;;15.85;50.47
79150;BME280;68563;45.644;13.782;2023-05-17T07:39:09;100403.00;;;15.84;50.74
79150;BME280;68563;45.644;13.782;2023-05-17T07:41:35;100366.47;;;15.84;50.74
79150;BME280;68563;45.644;13.782;2023-05-17T07:44:00;100412.59;;;15.83;51.04
79150;BME280;68563;45.644;13.782;2023-05-17T07:46:26;100378.59;;;15.85;50.78
79150;BME280;68563;45.644;13.782;2023-05-17T07:48:51;100364.00;;;15.79;51.04
79150;BME280;68563;45.644;13.782;2023-05-17T07:51:17;100359.75;;;15.76;50.91
79150;BME280;68563;45.644;13.782;2023-05-17T07:53:42;100424.81;;;15.83;50.92
79150;BME280;68563;45.644;13.782;2023-05-17T07:56:07;100333.31;;;15.86;51.19
79150;BME280;68563;45.644;13.782;2023-05-17T07:58:33;100437.75;;;15.86;51.26
79150;BME280;68563;45.644;13.782;2023-05-17T08:01:00;100353.63;;;15.77;51.39
79150;BME280;68563;45.644;13.782;2023-05-17T08:03:25;100361.31;;;15.80;51.33
79150;BME280;68563;45.644;13.782;2023-05-17T08:05:52;100450.22;;;15.77;51.49
79150;BME280;68563;45.644;13.782;2023-05-17T08:08:17;100401.38;;;15.79;51.41
79150;BME280;68563;45.644;13.782;2023-05-17T08:10:45;100347.28;;;15.85;50.81
79150;BME280;68563;45.644;13.782;2023-05-17T08:13:10;100373.47;;;15.82;51.05
79150;BME280;68563;45.644;13.782;2023-05-17T08:15:35;100390.94;;;15.79;50.99
79150;BME280;68563;45.644;13.782;2023-05-17T08:18:01;100388.25;;;15.83;51.06
79150;BME280;68563;45.644;13.782;2023-05-17T08:20:26;100400.34;;;15.85;51.06
79150;BME280;68563;45.644;13.782;2023-05-17T08:22:52;100403.06;;;15.82;50.55
79150;BME280;68563;45.644;13.782;2023-05-17T08:25:18;100420.38;;;15.85;50.35
79150;BME280;68563;45.644;13.782;2023-05-17T08:27:44;100417.63;;;15.88;49.98
79150;BME280;68563;45.644;13.782;2023-05-17T08:30:09;100420.38;;;15.85;49.81
79150;BME280;68563;45.644;13.782;2023-05-17T08:32:36;100439.44;;;15.87;50.48
79150;BME280;68563;45.644;13.782;2023-05-17T08:35:01;100445.72;;;15.81;50.24
79150;BME280;68563;45.644;13.782;2023-05-17T08:37:28;100447.22;;;15.88;50.22
79150;BME280;68563;45.644;13.782;2023-05-17T08:39:53;100465.50;;;15.88;50.41
79150;BME280;68563;45.644;13.782;2023-05-17T08:42:21;100441.28;;;15.85;50.05
79150;BME280;68563;45.644;13.782;2023-05-17T08:44:50;100465.53;;;15.87;50.71
79150;BME280;68563;45.644;13.782;2023-05-17T08:47:16;100485.66;;;15.85;50.44
79150;BME280;68563;45.644;13.782;2023-05-17T08:49:53;100490.81;;;15.86;50.81
79150;BME280;68563;45.644;13.782;2023-05-17T08:52:19;100467.31;;;15.86;50.64
79150;BME280;68563;45.644;13.782;2023-05-17T08:54:46;100482.00;;;15.89;50.62
79150;BME280;68563;45.644;13.782;2023-05-17T08:57:11;100467.41;;;15.83;50.50
79150;BME280;68563;45.644;13.782;2023-05-17T08:59:38;100479.41;;;15.89;50.24
79150;BME280;68563;45.644;13.782;2023-05-17T09:02:04;100500.44;;;15.86;50.37
79150;BME280;68563;45.644;13.782;2023-05-17T09:04:30;100540.94;;;15.96;50.10
79150;BME280;68563;45.644;13.782;2023-05-17T09:06:57;100504.47;;;15.93;50.44
79150;BME280;68563;45.644;13.782;2023-05-17T09:09:24;100507.00;;;15.96;50.23
79150;BME280;68563;45.644;13.782;2023-05-17T09:11:50;100549.50;;;16.00;50.13
79150;BME280;68563;45.644;13.782;2023-05-17T09:14:15;100537.94;;;16.07;50.21
79150;BME280;68563;45.644;13.782;2023-05-17T09:16:41;100525.94;;;16.01;50.34
79150;BME280;68563;45.644;13.782;2023-05-17T09:19:13;100524.19;;;16.02;50.03
79150;BME280;68563;45.644;13.782;2023-05-17T09:21:47;100552.06;;;16.01;50.27
79150;BME280;68563;45.644;13.782;2023-05-17T09:24:12;100519.16;;;15.97;50.28
79150;BME280;68563;45.644;13.782;2023-05-17T09:29:10;100535.41;;;16.04;49.87
79150;BME280;68563;45.644;13.782;2023-05-17T09:31:36;100530.03;;;16.08;49.74
79150;BME280;68563;45.644;13.782;2023-05-17T09:34:01;100553.28;;;16.15;49.59
79150;BME280;68563;45.644;13.782;2023-05-17T09:36:27;100549.91;;;16.13;48.92
79150;BME280;68563;45.644;13.782;2023-05-17T09:39:00;100549.91;;;16.13;49.12
79150;BME280;68563;45.644;13.782;2023-05-17T09:41:40;100536.84;;;16.13;49.75
79150;BME280;68563;45.644;13.782;2023-05-17T09:44:08;100526.34;;;16.14;49.03
79150;BME280;68563;45.644;13.782;2023-05-17T09:46:34;100515.00;;;16.14;49.65
79150;BME280;68563;45.644;13.782;2023-05-17T09:49:01;100508.59;;;16.22;49.27
79150;BME280;68563;45.644;13.782;2023-05-17T09:54:00;100490.81;;;16.32;49.02
79150;BME280;68563;45.644;13.782;2023-05-17T09:56:29;100511.72;;;16.32;48.74
79150;BME280;68563;45.644;13.782;2023-05-17T09:58:55;100538.16;;;16.47;48.79
79150;BME280;68563;45.644;13.782;2023-05-17T10:01:24;100485.81;;;16.48;48.75
79150;BME280;68563;45.644;13.782;2023-05-17T10:03:50;100491.69;;;16.53;48.55
79150;BME280;68563;45.644;13.782;2023-05-17T10:06:17;100485.63;;;16.53;47.90
79150;BME280;68563;45.644;13.782;2023-05-17T10:08:50;100493.31;;;16.56;47.34
79150;BME280;68563;45.644;13.782;2023-05-17T10:11:17;100518.44;;;16.60;47.25
79150;BME280;68563;45.644;13.782;2023-05-17T10:14:01;100503.56;;;16.62;46.71
79150;BME280;68563;45.644;13.782;2023-05-17T10:16:32;100507.19;;;16.58;47.19
79150;BME280;68563;45.644;13.782;2023-05-17T10:18:59;100580.28;;;16.61;46.64
79150;BME280;68563;45.644;13.782;2023-05-17T10:21:25;100526.84;;;16.68;46.77
79150;BME280;68563;45.644;13.782;2023-05-17T10:23:53;100478.81;;;16.69;46.60
79150;BME280;68563;45.644;13.782;2023-05-17T10:26:21;100509.44;;;16.67;46.61
79150;BME280;68563;45.644;13.782;2023-05-17T10:28:47;100543.34;;;16.69;46.91
79150;BME280;68563;45.644;13.782;2023-05-17T10:31:16;100580.59;;;16.75;46.78
79150;BME280;68563;45.644;13.782;2023-05-17T10:33:42;100533.38;;;16.79;46.92
79150;BME280;68563;45.644;13.782;2023-05-17T10:36:09;100512.19;;;16.85;45.69
79150;BME280;68563;45.644;13.782;2023-05-17T10:38:36;100541.56;;;16.91;45.67
79150;BME280;68563;45.644;13.782;2023-05-17T10:41:02;100533.38;;;16.79;46.24
79150;BME280;68563;45.644;13.782;2023-05-17T10:43:28;100502.34;;;16.91;45.86
79150;BME280;68563;45.644;13.782;2023-05-17T10:45:55;100501.19;;;16.99;46.03
79150;BME280;68563;45.644;13.782;2023-05-17T10:48:21;100572.59;;;17.01;45.77
79150;BME280;68563;45.644;13.782;2023-05-17T10:50:46;100533.97;;;17.08;45.69
79150;BME280;68563;45.644;13.782;2023-05-17T10:53:12;100555.34;;;16.97;45.83
79150;BME280;68563;45.644;13.782;2023-05-17T10:55:41;100544.94;;;16.95;46.32
79150;BME280;68563;45.644;13.782;2023-05-17T11:00:43;100530.97;;;16.96;46.49
79150;BME280;68563;45.644;13.782;2023-05-17T11:03:21;100621.56;;;16.97;46.33
79150;BME280;68563;45.644;13.782;2023-05-17T11:08:37;100549.31;;;16.95;45.80
79150;BME280;68563;45.644;13.782;2023-05-17T11:13:51;100574.63;;;16.94;45.38
79150;BME280;68563;45.644;13.782;2023-05-17T11:16:17;100533.72;;;16.91;45.91
79150;BME280;68563;45.644;13.782;2023-05-17T11:18:49;100612.31;;;16.88;45.81
79150;BME280;68563;45.644;13.782;2023-05-17T11:21:14;100562.06;;;16.80;45.68
79150;BME280;68563;45.644;13.782;2023-05-17T11:23:44;100552.41;;;16.82;46.07
79150;BME280;68563;45.644;13.782;2023-05-17T11:28:42;100568.91;;;16.84;46.10
79150;BME280;68563;45.644;13.782;2023-05-17T11:31:07;100542.66;;;16.86;46.48
79150;BME280;68563;45.644;13.782;2023-05-17T11:33:52;100626.03;;;16.95;46.66
79150;BME280;68563;45.644;13.782;2023-05-17T11:36:19;100573.16;;;16.87;46.70
79150;BME280;68563;45.644;13.782;2023-05-17T11:38:50;100595.78;;;16.88;46.79
79150;BME280;68563;45.644;13.782;2023-05-17T11:41:36;100641.72;;;16.95;46.86
79150;BME280;68563;45.644;13.782;2023-05-17T11:44:02;100576.38;;;16.94;46.60
79150;BME280;68563;45.644;13.782;2023-05-17T11:46:29;100583.44;;;16.91;47.84
79150;BME280;68563;45.644;13.782;2023-05-17T11:48:55;100576.38;;;16.94;48.05
79150;BME280;68563;45.644;13.782;2023-05-17T11:51:22;100555.63;;;16.89;48.02
79150;BME280;68563;45.644;13.782;2023-05-17T11:53:48;100650.69;;;16.88;47.60
79150;BME280;68563;45.644;13.782;2023-05-17T11:56:14;100604.72;;;16.82;47.93
79150;BME280;68563;45.644;13.782;2023-05-17T11:58:40;100578.47;;;16.84;47.97
79150;BME280;68563;45.644;13.782;2023-05-17T12:01:06;100590.78;;;16.82;48.54
79150;BME280;68563;45.644;13.782;2023-05-17T12:03:33;100615.25;;;16.81;48.22
79150;BME280;68563;45.644;13.782;2023-05-17T12:06:07;100618.66;;;16.83;48.53
79150;BME280;68563;45.644;13.782;2023-05-17T12:08:38;100567.13;;;16.85;48.33
79150;BME280;68563;45.644;13.782;2023-05-17T12:11:05;100590.47;;;16.89;48.63
79150;BME280;68563;45.644;13.782;2023-05-17T12:13:33;100635.91;;;16.87;48.93
79150;BME280;68563;45.644;13.782;2023-05-17T12:16:00;100609.03;;;16.83;49.09
79150;BME280;68563;45.644;13.782;2023-05-17T12:18:40;100619.16;;;16.93;48.58
79150;BME280;68563;45.644;13.782;2023-05-17T12:21:07;100637.63;;;16.88;48.57
79150;BME280;68563;45.644;13.782;2023-05-17T12:23:37;100746.69;;;16.86;49.18
79150;BME280;68563;45.644;13.782;2023-05-17T12:26:05;100642.97;;;16.85;48.60
79150;BME280;68563;45.644;13.782;2023-05-17T12:28:31;100614.50;;;16.77;48.77
79150;BME280;68563;45.644;13.782;2023-05-17T12:30:56;100608.31;;;16.80;48.18
79150;BME280;68563;45.644;13.782;2023-05-17T12:33:24;100621.19;;;16.84;48.43
79150;BME280;68563;45.644;13.782;2023-05-17T12:35:50;100649.91;;;16.86;48.03
79150;BME280;68563;45.644;13.782;2023-05-17T12:38:17;100635.00;;;16.88;47.96
79150;BME280;68563;45.644;13.782;2023-05-17T12:40:43;100575.75;;;16.87;47.75
79150;BME280;68563;45.644;13.782;2023-05-17T12:43:08;100595.41;;;16.97;48.21
79150;BME280;68563;45.644;13.782;2023-05-17T12:45:34;100629.50;;;16.96;48.62
79150;BME280;68563;45.644;13.782;2023-05-17T12:47:59;100644.56;;;16.89;48.46
79150;BME280;68563;45.644;13.782;2023-05-17T12:50:27;100629.31;;;17.00;48.36
79150;BME280;68563;45.644;13.782;2023-05-17T12:52:54;100621.47;;;17.00;48.19
79150;BME280;68563;45.644;13.782;2023-05-17T12:55:20;100635.09;;;17.09;48.12
79150;BME280;68563;45.644;13.782;2023-05-17T12:57:50;100601.34;;;17.02;48.39
79150;BME280;68563;45.644;13.782;2023-05-17T13:00:16;100666.56;;;17.07;48.48
79150;BME280;68563;45.644;13.782;2023-05-17T13:02:41;100668.06;;;17.13;48.24
79150;BME280;68563;45.644;13.782;2023-05-17T13:05:17;100668.13;;;17.11;48.38
79150;BME280;68563;45.644;13.782;2023-05-17T13:07:44;100645.31;;;17.15;48.27